sensor_id;sensor_type;location;lat;lon;timestamp;pressure;altitude;pressure_sealevel;temperature;humidity
48527;BME280;34317;51.660;5.824;2023-04-05T00:00:29;102425.78;;;6.50;43.27
48527;BME280;34317;51.660;5.824;2023-04-05T00:02:58;102415.28;;;6.43;43.08
48527;BME280;34317;51.660;5.824;2023-04-05T00:05:29;102415.31;;;6.37;42.97
48527;BME280;34317;51.660;5.824;2023-04-05T00:07:57;102416.19;;;6.32;43.13
48527;BME280;34317;51.660;5.824;2023-04-05T00:10:27;102422.34;;;6.29;43.34
48527;BME280;34317;51.660;5.824;2023-04-05T00:12:54;102417.06;;;6.23;43.46
48527;BME280;34317;51.660;5.824;2023-04-05T00:15:24;102410.06;;;6.19;43.76
48527;BME280;34317;51.660;5.824;2023-04-05T00:17:53;102403.06;;;6.15;43.48
48527;BME280;34317;51.660;5.824;2023-04-05T00:20:21;102407.44;;;6.11;43.79
48527;BME280;34317;51.660;5.824;2023-04-05T00:22:48;102404.84;;;6.07;43.53
48527;BME280;34317;51.660;5.824;2023-04-05T00:25:17;102408.31;;;6.02;43.72
48527;BME280;34317;51.660;5.824;2023-04-05T00:27:45;102407.44;;;5.99;43.86
48527;BME280;34317;51.660;5.824;2023-04-05T00:30:13;102411.88;;;5.95;44.00
48527;BME280;34317;51.660;5.824;2023-04-05T00:32:47;102404.81;;;5.90;43.91
48527;BME280;34317;51.660;5.824;2023-04-05T00:35:16;102403.06;;;5.84;43.89
48527;BME280;34317;51.660;5.824;2023-04-05T00:37:43;102397.81;;;5.81;43.82
48527;BME280;34317;51.660;5.824;2023-04-05T00:40:10;102401.31;;;5.77;44.09
48527;BME280;34317;51.660;5.824;2023-04-05T00:42:38;102403.06;;;5.72;44.09
48527;BME280;34317;51.660;5.824;2023-04-05T00:45:06;102396.06;;;5.68;44.08
48527;BME280;34317;51.660;5.824;2023-04-05T00:47:33;102393.41;;;5.64;44.36
48527;BME280;34317;51.660;5.824;2023-04-05T00:50:00;102389.91;;;5.61;44.07
48527;BME280;34317;51.660;5.824;2023-04-05T00:52:28;102396.03;;;5.58;44.22
48527;BME280;34317;51.660;5.824;2023-04-05T00:54:58;102388.13;;;5.54;44.28
48527;BME280;34317;51.660;5.824;2023-04-05T00:57:25;102392.53;;;5.50;44.41
48527;BME280;34317;51.660;5.824;2023-04-05T00:59:52;102377.63;;;5.47;44.21
48527;BME280;34317;51.660;5.824;2023-04-05T01:02:29;102385.50;;;5.46;44.57
48527;BME280;34317;51.660;5.824;2023-04-05T01:10:45;102390.75;;;5.40;44.38
48527;BME280;34317;51.660;5.824;2023-04-05T01:13:15;102385.50;;;5.37;44.48
48527;BME280;34317;51.660;5.824;2023-04-05T01:15:42;102378.50;;;5.36;44.66
48527;BME280;34317;51.660;5.824;2023-04-05T01:18:10;102381.13;;;5.33;44.59
48527;BME280;34317;51.660;5.824;2023-04-05T01:20:42;102375.88;;;5.30;44.68
48527;BME280;34317;51.660;5.824;2023-04-05T01:26:44;102381.97;;;5.22;44.58
48527;BME280;34317;51.660;5.824;2023-04-05T01:29:37;102383.72;;;5.20;44.77
48527;BME280;34317;51.660;5.824;2023-04-05T01:32:40;102376.72;;;5.16;44.47
48527;BME280;34317;51.660;5.824;2023-04-05T01:35:21;102378.47;;;5.11;44.35
48527;BME280;34317;51.660;5.824;2023-04-05T01:37:56;102376.69;;;5.07;44.54
48527;BME280;34317;51.660;5.824;2023-04-05T01:40:26;102372.28;;;5.04;44.69
48527;BME280;34317;51.660;5.824;2023-04-05T01:42:54;102368.78;;;5.02;44.55
48527;BME280;34317;51.660;5.824;2023-04-05T01:45:21;102369.69;;;5.00;44.96
48527;BME280;34317;51.660;5.824;2023-04-05T01:47:48;102378.41;;;4.99;44.84
48527;BME280;34317;51.660;5.824;2023-04-05T01:50:18;102376.69;;;4.98;44.77
48527;BME280;34317;51.660;5.824;2023-04-05T01:52:46;102369.66;;;4.97;44.82
48527;BME280;34317;51.660;5.824;2023-04-05T01:55:15;102375.78;;;4.96;44.97
48527;BME280;34317;51.660;5.824;2023-04-05T01:57:42;102366.16;;;4.95;44.89
48527;BME280;34317;51.660;5.824;2023-04-05T02:00:10;102359.16;;;4.94;44.82
48527;BME280;34317;51.660;5.824;2023-04-05T02:02:40;102360.91;;;4.92;45.11
48527;BME280;34317;51.660;5.824;2023-04-05T02:05:08;102360.91;;;4.92;45.27
48527;BME280;34317;51.660;5.824;2023-04-05T02:07:35;102367.88;;;4.90;45.04
48527;BME280;34317;51.660;5.824;2023-04-05T02:10:03;102364.38;;;4.87;44.95
48527;BME280;34317;51.660;5.824;2023-04-05T02:12:30;102367.88;;;4.86;45.26
48527;BME280;34317;51.660;5.824;2023-04-05T02:14:58;102364.38;;;4.84;45.32
48527;BME280;34317;51.660;5.824;2023-04-05T02:17:26;102360.88;;;4.82;45.15
48527;BME280;34317;51.660;5.824;2023-04-05T02:20:00;102358.22;;;4.79;45.18
48527;BME280;34317;51.660;5.824;2023-04-05T02:22:32;102362.59;;;4.77;45.29
48527;BME280;34317;51.660;5.824;2023-04-05T02:24:59;102354.72;;;4.74;45.17
48527;BME280;34317;51.660;5.824;2023-04-05T02:27:27;102352.94;;;4.70;45.15
48527;BME280;34317;51.660;5.824;2023-04-05T02:29:54;102356.44;;;4.66;45.06
48527;BME280;34317;51.660;5.824;2023-04-05T02:32:23;102348.53;;;4.63;45.21
48527;BME280;34317;51.660;5.824;2023-04-05T02:34:51;102345.03;;;4.59;45.19
48527;BME280;34317;51.660;5.824;2023-04-05T02:37:22;102346.75;;;4.56;45.53
48527;BME280;34317;51.660;5.824;2023-04-05T02:39:52;102346.75;;;4.53;45.57
48527;BME280;34317;51.660;5.824;2023-04-05T02:42:19;102342.34;;;4.50;45.64
48527;BME280;34317;51.660;5.824;2023-04-05T02:44:50;102338.00;;;4.47;45.64
48527;BME280;34317;51.660;5.824;2023-04-05T02:47:19;102337.09;;;4.45;45.32
48527;BME280;34317;51.660;5.824;2023-04-05T02:49:53;102341.47;;;4.43;45.27
48527;BME280;34317;51.660;5.824;2023-04-05T02:52:23;102344.09;;;4.42;45.45
48527;BME280;34317;51.660;5.824;2023-04-05T02:54:51;102336.19;;;4.40;45.37
48527;BME280;34317;51.660;5.824;2023-04-05T02:57:23;102333.59;;;4.37;45.37
48527;BME280;34317;51.660;5.824;2023-04-05T03:00:03;102339.69;;;4.36;45.21
48527;BME280;34317;51.660;5.824;2023-04-05T03:02:32;102332.69;;;4.35;45.39
48527;BME280;34317;51.660;5.824;2023-04-05T03:05:02;102330.94;;;4.34;45.34
48527;BME280;34317;51.660;5.824;2023-04-05T03:07:33;102339.66;;;4.33;45.37
48527;BME280;34317;51.660;5.824;2023-04-05T03:10:05;102326.56;;;4.32;45.10
48527;BME280;34317;51.660;5.824;2023-04-05T03:12:36;102323.03;;;4.31;45.12
48527;BME280;34317;51.660;5.824;2023-04-05T03:15:04;102320.44;;;4.29;45.11
48527;BME280;34317;51.660;5.824;2023-04-05T03:17:37;102320.41;;;4.28;45.04
48527;BME280;34317;51.660;5.824;2023-04-05T03:20:06;102329.16;;;4.24;45.15
48527;BME280;34317;51.660;5.824;2023-04-05T03:22:36;102323.88;;;4.21;44.98
48527;BME280;34317;51.660;5.824;2023-04-05T03:25:05;102321.25;;;4.19;45.22
48527;BME280;34317;51.660;5.824;2023-04-05T03:27:40;102320.34;;;4.16;45.16
48527;BME280;34317;51.660;5.824;2023-04-05T03:30:14;102315.09;;;4.13;45.16
48527;BME280;34317;51.660;5.824;2023-04-05T03:32:55;102319.44;;;4.10;45.20
48527;BME280;34317;51.660;5.824;2023-04-05T03:35:43;102320.28;;;4.06;45.14
48527;BME280;34317;51.660;5.824;2023-04-05T03:38:11;102319.41;;;4.06;45.21
48527;BME280;34317;51.660;5.824;2023-04-05T03:40:59;102315.06;;;4.03;45.29
48527;BME280;34317;51.660;5.824;2023-04-05T03:43:29;102320.28;;;4.03;45.38
48527;BME280;34317;51.660;5.824;2023-04-05T03:45:57;102323.75;;;4.02;45.33
48527;BME280;34317;51.660;5.824;2023-04-05T03:48:27;102320.25;;;4.00;45.26
48527;BME280;34317;51.660;5.824;2023-04-05T03:50:54;102319.41;;;4.00;45.39
48527;BME280;34317;51.660;5.824;2023-04-05T03:53:22;102306.28;;;3.98;45.26
48527;BME280;34317;51.660;5.824;2023-04-05T03:55:53;102303.66;;;3.98;45.45
48527;BME280;34317;51.660;5.824;2023-04-05T03:58:43;102304.50;;;3.97;45.62
48527;BME280;34317;51.660;5.824;2023-04-05T04:01:12;102290.50;;;3.95;45.53
48527;BME280;34317;51.660;5.824;2023-04-05T04:03:39;102301.88;;;3.94;45.37
48527;BME280;34317;51.660;5.824;2023-04-05T04:06:06;102297.50;;;3.93;45.38
48527;BME280;34317;51.660;5.824;2023-04-05T04:08:34;102295.75;;;3.92;45.55
48527;BME280;34317;51.660;5.824;2023-04-05T04:11:01;102294.00;;;3.91;45.46
48527;BME280;34317;51.660;5.824;2023-04-05T04:13:39;102299.19;;;3.88;45.54
48527;BME280;34317;51.660;5.824;2023-04-05T04:16:12;102295.69;;;3.86;45.36
48527;BME280;34317;51.660;5.824;2023-04-05T04:18:58;102292.19;;;3.84;45.52
48527;BME280;34317;51.660;5.824;2023-04-05T04:21:35;102293.06;;;3.80;45.32
48527;BME280;34317;51.660;5.824;2023-04-05T04:24:40;102290.41;;;3.77;45.55
48527;BME280;34317;51.660;5.824;2023-04-05T04:27:43;102299.13;;;3.76;45.57
48527;BME280;34317;51.660;5.824;2023-04-05T04:30:29;102288.63;;;3.73;45.39
48527;BME280;34317;51.660;5.824;2023-04-05T04:33:07;102290.38;;;3.72;45.35
48527;BME280;34317;51.660;5.824;2023-04-05T04:36:07;102286.00;;;3.69;45.56
48527;BME280;34317;51.660;5.824;2023-04-05T04:38:55;102285.13;;;3.67;45.69
48527;BME280;34317;51.660;5.824;2023-04-05T04:41:45;102295.59;;;3.67;45.48
48527;BME280;34317;51.660;5.824;2023-04-05T04:44:41;102288.59;;;3.66;45.28
48527;BME280;34317;51.660;5.824;2023-04-05T04:47:41;102294.69;;;3.62;45.47
48527;BME280;34317;51.660;5.824;2023-04-05T04:50:30;102297.28;;;3.59;45.47
48527;BME280;34317;51.660;5.824;2023-04-05T04:52:58;102292.91;;;3.58;45.60
48527;BME280;34317;51.660;5.824;2023-04-05T04:55:27;102292.91;;;3.58;45.63
48527;BME280;34317;51.660;5.824;2023-04-05T04:57:55;102285.06;;;3.58;45.66
48527;BME280;34317;51.660;5.824;2023-04-05T05:00:22;102300.78;;;3.58;45.48
48527;BME280;34317;51.660;5.824;2023-04-05T05:02:52;102298.13;;;3.57;45.76
48527;BME280;34317;51.660;5.824;2023-04-05T05:05:19;102297.28;;;3.56;45.53
48527;BME280;34317;51.660;5.824;2023-04-05T05:07:49;102300.75;;;3.55;45.53
48527;BME280;34317;51.660;5.824;2023-04-05T05:10:19;102298.97;;;3.54;45.88
48527;BME280;34317;51.660;5.824;2023-04-05T05:12:47;102297.22;;;3.53;46.03
48527;BME280;34317;51.660;5.824;2023-04-05T05:15:18;102292.00;;;3.53;45.75
48527;BME280;34317;51.660;5.824;2023-04-05T05:17:45;102298.97;;;3.54;45.92
48527;BME280;34317;51.660;5.824;2023-04-05T05:20:13;102294.63;;;3.55;45.90
48527;BME280;34317;51.660;5.824;2023-04-05T05:22:44;102305.13;;;3.56;46.05
48527;BME280;34317;51.660;5.824;2023-04-05T05:25:12;102296.38;;;3.57;45.85
48527;BME280;34317;51.660;5.824;2023-04-05T05:27:39;102293.75;;;3.57;45.90
48527;BME280;34317;51.660;5.824;2023-04-05T05:30:07;102299.88;;;3.56;46.16
48527;BME280;34317;51.660;5.824;2023-04-05T05:32:35;102296.38;;;3.57;45.96
48527;BME280;34317;51.660;5.824;2023-04-05T05:35:02;102300.78;;;3.58;45.87
48527;BME280;34317;51.660;5.824;2023-04-05T05:37:31;102297.28;;;3.59;46.22
48527;BME280;34317;51.660;5.824;2023-04-05T05:39:59;102292.91;;;3.60;46.07
48527;BME280;34317;51.660;5.824;2023-04-05T05:42:26;102295.53;;;3.61;45.89
48527;BME280;34317;51.660;5.824;2023-04-05T05:44:53;102286.81;;;3.62;45.73
48527;BME280;34317;51.660;5.824;2023-04-05T05:47:21;102292.06;;;3.65;46.17
48527;BME280;34317;51.660;5.824;2023-04-05T05:49:48;102287.72;;;3.66;46.31
48527;BME280;34317;51.660;5.824;2023-04-05T05:52:16;102286.84;;;3.67;46.29
48527;BME280;34317;51.660;5.824;2023-04-05T05:54:44;102286.84;;;3.68;46.51
48527;BME280;34317;51.660;5.824;2023-04-05T05:57:11;102284.25;;;3.70;46.32
48527;BME280;34317;51.660;5.824;2023-04-05T05:59:38;102285.16;;;3.74;46.35
48527;BME280;34317;51.660;5.824;2023-04-05T06:02:06;102286.06;;;3.79;46.47
48527;BME280;34317;51.660;5.824;2023-04-05T06:04:34;102290.47;;;3.83;46.61
48527;BME280;34317;51.660;5.824;2023-04-05T06:07:01;102293.97;;;3.88;46.61
48527;BME280;34317;51.660;5.824;2023-04-05T06:09:28;102292.25;;;3.93;46.45
48527;BME280;34317;51.660;5.824;2023-04-05T06:11:56;102292.28;;;3.99;46.76
48527;BME280;34317;51.660;5.824;2023-04-05T06:14:24;102297.59;;;4.05;46.79
48527;BME280;34317;51.660;5.824;2023-04-05T06:16:51;102295.88;;;4.14;46.73
48527;BME280;34317;51.660;5.824;2023-04-05T06:19:18;102299.38;;;4.22;46.81
48527;BME280;34317;51.660;5.824;2023-04-05T06:21:46;102297.69;;;4.30;46.80
48527;BME280;34317;51.660;5.824;2023-04-05T06:24:13;102299.50;;;4.37;46.78
48527;BME280;34317;51.660;5.824;2023-04-05T06:26:42;102301.25;;;4.44;47.04
48527;BME280;34317;51.660;5.824;2023-04-05T06:29:09;102299.53;;;4.53;47.12
48527;BME280;34317;51.660;5.824;2023-04-05T06:31:36;102292.56;;;4.61;47.15
48527;BME280;34317;51.660;5.824;2023-04-05T06:34:04;102294.34;;;4.71;47.22
48527;BME280;34317;51.660;5.824;2023-04-05T06:36:32;102287.38;;;4.82;47.16
48527;BME280;34317;51.660;5.824;2023-04-05T06:39:00;102294.41;;;4.96;47.22
48527;BME280;34317;51.660;5.824;2023-04-05T06:41:27;102287.41;;;5.10;47.39
48527;BME280;34317;51.660;5.824;2023-04-05T06:43:55;102285.69;;;5.24;47.79
48527;BME280;34317;51.660;5.824;2023-04-05T06:46:23;102294.44;;;5.42;47.71
48527;BME280;34317;51.660;5.824;2023-04-05T06:48:51;102283.91;;;5.57;47.47
48527;BME280;34317;51.660;5.824;2023-04-05T06:51:19;102286.53;;;5.71;47.67
48527;BME280;34317;51.660;5.824;2023-04-05T06:53:46;102288.25;;;5.86;47.58
48527;BME280;34317;51.660;5.824;2023-04-05T06:56:14;102292.63;;;5.99;47.30
48527;BME280;34317;51.660;5.824;2023-04-05T06:58:41;102295.22;;;6.13;47.48
48527;BME280;34317;51.660;5.824;2023-04-05T07:01:08;102297.78;;;6.30;47.39
48527;BME280;34317;51.660;5.824;2023-04-05T07:03:35;102294.22;;;6.43;47.50
48527;BME280;34317;51.660;5.824;2023-04-05T07:06:03;102298.53;;;6.58;47.46
48527;BME280;34317;51.660;5.824;2023-04-05T07:08:31;102300.22;;;6.73;47.22
48527;BME280;34317;51.660;5.824;2023-04-05T07:10:58;102306.31;;;6.88;47.47
48527;BME280;34317;51.660;5.824;2023-04-05T07:13:25;102300.94;;;7.00;47.17
48527;BME280;34317;51.660;5.824;2023-04-05T07:16:00;102306.09;;;7.15;47.12
48527;BME280;34317;51.660;5.824;2023-04-05T07:18:28;102299.84;;;7.29;47.31
48527;BME280;34317;51.660;5.824;2023-04-05T07:20:57;102302.38;;;7.44;47.27
48527;BME280;34317;51.660;5.824;2023-04-05T07:23:30;102298.69;;;7.64;47.28
48527;BME280;34317;51.660;5.824;2023-04-05T07:26:01;102298.50;;;7.82;47.01
48527;BME280;34317;51.660;5.824;2023-04-05T07:28:32;102293.03;;;8.01;47.28
48527;BME280;34317;51.660;5.824;2023-04-05T07:31:02;102294.59;;;8.17;46.58
48527;BME280;34317;51.660;5.824;2023-04-05T07:33:29;102300.59;;;8.30;46.42
48527;BME280;34317;51.660;5.824;2023-04-05T07:35:57;102289.91;;;8.44;46.66
48527;BME280;34317;51.660;5.824;2023-04-05T07:38:27;102283.59;;;8.57;46.54
48527;BME280;34317;51.660;5.824;2023-04-05T07:40:56;102288.59;;;8.75;46.56
48527;BME280;34317;51.660;5.824;2023-04-05T07:43:23;102281.34;;;8.90;46.22
48527;BME280;34317;51.660;5.824;2023-04-05T07:45:59;102288.19;;;9.03;46.03
48527;BME280;34317;51.660;5.824;2023-04-05T07:48:27;102288.88;;;9.18;46.11
48527;BME280;34317;51.660;5.824;2023-04-05T07:50:54;102286.03;;;9.28;45.63
48527;BME280;34317;51.660;5.824;2023-04-05T07:53:21;102292.94;;;9.37;45.75
48527;BME280;34317;51.660;5.824;2023-04-05T07:55:49;102287.38;;;9.52;45.59
48527;BME280;34317;51.660;5.824;2023-04-05T07:58:16;102285.38;;;9.67;45.65
48527;BME280;34317;51.660;5.824;2023-04-05T08:00:44;102281.63;;;9.80;45.76
48527;BME280;34317;51.660;5.824;2023-04-05T08:03:11;102284.94;;;9.91;45.61
48527;BME280;34317;51.660;5.824;2023-04-05T08:05:38;102284.66;;;10.04;45.52
48527;BME280;34317;51.660;5.824;2023-04-05T08:08:05;102277.34;;;10.18;45.22
48527;BME280;34317;51.660;5.824;2023-04-05T08:10:38;102278.91;;;10.28;44.93
48527;BME280;34317;51.660;5.824;2023-04-05T08:13:06;102282.28;;;10.37;44.60
48527;BME280;34317;51.660;5.824;2023-04-05T08:15:34;102280.44;;;10.42;44.61
48527;BME280;34317;51.660;5.824;2023-04-05T08:18:02;102282.03;;;10.49;44.78
48527;BME280;34317;51.660;5.824;2023-04-05T08:20:29;102278.19;;;10.62;44.91
48527;BME280;34317;51.660;5.824;2023-04-05T08:22:56;102283.22;;;10.75;45.00
48527;BME280;34317;51.660;5.824;2023-04-05T08:25:24;102281.16;;;10.89;44.66
48527;BME280;34317;51.660;5.824;2023-04-05T08:27:51;102276.38;;;11.03;44.28
48527;BME280;34317;51.660;5.824;2023-04-05T08:30:18;102273.50;;;11.13;44.06
48527;BME280;34317;51.660;5.824;2023-04-05T08:32:46;102279.53;;;11.19;43.60
48527;BME280;34317;51.660;5.824;2023-04-05T08:35:13;102278.59;;;11.22;43.66
48527;BME280;34317;51.660;5.824;2023-04-05T08:37:41;102282.81;;;11.30;43.88
48527;BME280;34317;51.660;5.824;2023-04-05T08:40:09;102272.75;;;11.43;44.16
48527;BME280;34317;51.660;5.824;2023-04-05T08:43:05;102276.72;;;11.60;43.66
48527;BME280;34317;51.660;5.824;2023-04-05T08:45:46;102271.19;;;11.69;43.36
48527;BME280;34317;51.660;5.824;2023-04-05T08:48:14;102278.91;;;11.78;43.48
48527;BME280;34317;51.660;5.824;2023-04-05T08:50:48;102268.91;;;11.90;43.15
48527;BME280;34317;51.660;5.824;2023-04-05T08:53:17;102277.44;;;12.01;43.12
48527;BME280;34317;51.660;5.824;2023-04-05T08:55:54;102275.31;;;12.14;42.64
48527;BME280;34317;51.660;5.824;2023-04-05T08:58:22;102272.44;;;12.21;42.16
48527;BME280;34317;51.660;5.824;2023-04-05T09:00:51;102272.25;;;12.27;42.13
48527;BME280;34317;51.660;5.824;2023-04-05T09:03:21;102269.25;;;12.40;42.21
48527;BME280;34317;51.660;5.824;2023-04-05T09:05:50;102268.03;;;12.50;41.87
48527;BME280;34317;51.660;5.824;2023-04-05T09:08:18;102270.47;;;12.58;41.11
48527;BME280;34317;51.660;5.824;2023-04-05T09:10:50;102269.50;;;12.60;41.11
48527;BME280;34317;51.660;5.824;2023-04-05T09:13:18;102270.13;;;12.69;41.27
48527;BME280;34317;51.660;5.824;2023-04-05T09:15:46;102271.66;;;12.77;41.15
48527;BME280;34317;51.660;5.824;2023-04-05T09:18:16;102268.63;;;12.88;40.82
48527;BME280;34317;51.660;5.824;2023-04-05T09:21:03;102266.50;;;12.99;40.84
48527;BME280;34317;51.660;5.824;2023-04-05T09:23:33;102260.88;;;13.09;40.59
48527;BME280;34317;51.660;5.824;2023-04-05T09:26:19;102268.69;;;13.15;39.90
48527;BME280;34317;51.660;5.824;2023-04-05T09:28:50;102262.41;;;13.16;39.71
48527;BME280;34317;51.660;5.824;2023-04-05T09:31:34;102262.34;;;13.19;39.70
48527;BME280;34317;51.660;5.824;2023-04-05T09:34:07;102258.56;;;13.26;39.83
48527;BME280;34317;51.660;5.824;2023-04-05T09:36:35;102250.25;;;13.35;39.71
48527;BME280;34317;51.660;5.824;2023-04-05T09:39:06;102256.00;;;13.50;39.60
48527;BME280;34317;51.660;5.824;2023-04-05T09:41:35;102253.91;;;13.58;38.96
48527;BME280;34317;51.660;5.824;2023-04-05T09:44:02;102248.41;;;13.64;39.18
48527;BME280;34317;51.660;5.824;2023-04-05T09:46:31;102242.75;;;13.73;38.85
48527;BME280;34317;51.660;5.824;2023-04-05T09:49:00;102242.53;;;13.79;37.97
48527;BME280;34317;51.660;5.824;2023-04-05T09:51:32;102246.09;;;13.78;37.38
48527;BME280;34317;51.660;5.824;2023-04-05T09:56:37;102241.00;;;13.72;37.04
48527;BME280;34317;51.660;5.824;2023-04-05T09:59:09;102244.69;;;13.68;37.02
48527;BME280;34317;51.660;5.824;2023-04-05T10:01:38;102237.75;;;13.64;36.86
48527;BME280;34317;51.660;5.824;2023-04-05T10:04:09;102234.16;;;13.65;36.98
48527;BME280;34317;51.660;5.824;2023-04-05T10:06:38;102232.31;;;13.67;36.47
48527;BME280;34317;51.660;5.824;2023-04-05T10:09:07;102236.81;;;13.65;36.59
48527;BME280;34317;51.660;5.824;2023-04-05T10:11:38;102220.78;;;13.67;36.75
48527;BME280;34317;51.660;5.824;2023-04-05T10:14:07;102236.66;;;13.70;36.45
48527;BME280;34317;51.660;5.824;2023-04-05T10:16:37;102228.63;;;13.71;36.53
48527;BME280;34317;51.660;5.824;2023-04-05T10:19:18;102219.69;;;13.72;36.66
48527;BME280;34317;51.660;5.824;2023-04-05T10:21:51;102217.75;;;13.77;36.72
48527;BME280;34317;51.660;5.824;2023-04-05T10:24:45;102223.69;;;13.84;36.91
48527;BME280;34317;51.660;5.824;2023-04-05T10:30:16;102225.66;;;14.04;37.39
48527;BME280;34317;51.660;5.824;2023-04-05T10:36:05;102211.84;;;14.16;36.37
48527;BME280;34317;51.660;5.824;2023-04-05T10:38:48;102203.84;;;14.16;36.40
48527;BME280;34317;51.660;5.824;2023-04-05T10:41:19;102210.94;;;14.17;36.39
48527;BME280;34317;51.660;5.824;2023-04-05T10:43:47;102209.06;;;14.19;36.39
48527;BME280;34317;51.660;5.824;2023-04-05T10:46:18;102206.25;;;14.24;36.46
48527;BME280;34317;51.660;5.824;2023-04-05T10:48:55;102201.63;;;14.28;35.90
48527;BME280;34317;51.660;5.824;2023-04-05T10:51:25;102199.81;;;14.30;36.07
48527;BME280;34317;51.660;5.824;2023-04-05T10:53:53;102202.16;;;14.37;36.19
48527;BME280;34317;51.660;5.824;2023-04-05T10:56:22;102186.78;;;14.44;35.10
48527;BME280;34317;51.660;5.824;2023-04-05T10:58:51;102186.69;;;14.47;35.08
48527;BME280;34317;51.660;5.824;2023-04-05T11:01:19;102185.72;;;14.48;35.00
48527;BME280;34317;51.660;5.824;2023-04-05T11:03:48;102189.91;;;14.55;34.96
48527;BME280;34317;51.660;5.824;2023-04-05T11:09:15;102176.28;;;14.63;34.19
48527;BME280;34317;51.660;5.824;2023-04-05T11:11:45;102179.00;;;14.62;34.49
48527;BME280;34317;51.660;5.824;2023-04-05T11:14:20;102180.50;;;14.69;34.51
48527;BME280;34317;51.660;5.824;2023-04-05T11:16:51;102169.59;;;14.75;34.58
48527;BME280;34317;51.660;5.824;2023-04-05T11:22:24;102163.34;;;14.96;34.53
48527;BME280;34317;51.660;5.824;2023-04-05T11:24:52;102168.97;;;15.11;34.60
48527;BME280;34317;51.660;5.824;2023-04-05T11:27:28;102172.97;;;15.21;33.89
48527;BME280;34317;51.660;5.824;2023-04-05T11:29:57;102164.91;;;15.23;34.03
48527;BME280;34317;51.660;5.824;2023-04-05T11:32:41;102156.69;;;15.27;33.91
48527;BME280;34317;51.660;5.824;2023-04-05T11:40:31;102159.63;;;15.42;33.38
48527;BME280;34317;51.660;5.824;2023-04-05T11:43:00;102159.28;;;15.49;33.17
48527;BME280;34317;51.660;5.824;2023-04-05T11:45:29;102153.75;;;15.54;33.07
48527;BME280;34317;51.660;5.824;2023-04-05T11:48:09;102157.06;;;15.59;32.83
48527;BME280;34317;51.660;5.824;2023-04-05T11:50:38;102146.25;;;15.62;32.47
48527;BME280;34317;51.660;5.824;2023-04-05T11:53:15;102133.81;;;15.61;32.54
48527;BME280;34317;51.660;5.824;2023-04-05T11:55:44;102143.59;;;15.62;32.23
48527;BME280;34317;51.660;5.824;2023-04-05T11:58:15;102137.44;;;15.60;32.05
48527;BME280;34317;51.660;5.824;2023-04-05T12:00:44;102133.97;;;15.58;32.25
48527;BME280;34317;51.660;5.824;2023-04-05T12:03:15;102126.88;;;15.57;32.31
48527;BME280;34317;51.660;5.824;2023-04-05T12:08:13;102117.66;;;15.64;32.47
48527;BME280;34317;51.660;5.824;2023-04-05T12:10:40;102121.00;;;15.69;32.71
48527;BME280;34317;51.660;5.824;2023-04-05T12:13:07;102113.78;;;15.71;32.53
48527;BME280;34317;51.660;5.824;2023-04-05T12:15:38;102111.94;;;15.73;32.53
48527;BME280;34317;51.660;5.824;2023-04-05T12:18:13;102117.16;;;15.76;32.23
48527;BME280;34317;51.660;5.824;2023-04-05T12:20:41;102111.81;;;15.76;31.97
48527;BME280;34317;51.660;5.824;2023-04-05T12:23:08;102108.44;;;15.71;31.35
48527;BME280;34317;51.660;5.824;2023-04-05T12:25:36;102114.78;;;15.69;31.39
48527;BME280;34317;51.660;5.824;2023-04-05T12:28:05;102104.97;;;15.69;31.63
48527;BME280;34317;51.660;5.824;2023-04-05T12:30:34;102104.81;;;15.72;31.76
48527;BME280;34317;51.660;5.824;2023-04-05T12:33:06;102110.72;;;15.81;31.91
48527;BME280;34317;51.660;5.824;2023-04-05T12:35:37;102098.72;;;15.89;32.41
48527;BME280;34317;51.660;5.824;2023-04-05T12:38:06;102096.34;;;16.02;32.39
48527;BME280;34317;51.660;5.824;2023-04-05T12:40:35;102093.22;;;16.11;31.82
48527;BME280;34317;51.660;5.824;2023-04-05T12:43:04;102091.25;;;16.15;31.95
48527;BME280;34317;51.660;5.824;2023-04-05T12:45:32;102083.00;;;16.20;31.84
48527;BME280;34317;51.660;5.824;2023-04-05T12:48:14;102079.28;;;16.24;31.94
48527;BME280;34317;51.660;5.824;2023-04-05T12:50:44;102068.41;;;16.27;31.94
48527;BME280;34317;51.660;5.824;2023-04-05T12:53:23;102076.22;;;16.31;32.34
48527;BME280;34317;51.660;5.824;2023-04-05T12:55:55;102066.25;;;16.35;32.22
48527;BME280;34317;51.660;5.824;2023-04-05T12:58:32;102064.03;;;16.43;31.57
48527;BME280;34317;51.660;5.824;2023-04-05T13:01:02;102068.22;;;16.49;31.72
48527;BME280;34317;51.660;5.824;2023-04-05T13:03:30;102064.50;;;16.51;31.03
48527;BME280;34317;51.660;5.824;2023-04-05T13:05:57;102060.91;;;16.52;30.47
48527;BME280;34317;51.660;5.824;2023-04-05T13:08:25;102057.38;;;16.52;30.59
48527;BME280;34317;51.660;5.824;2023-04-05T13:10:53;102063.56;;;16.52;30.27
48527;BME280;34317;51.660;5.824;2023-04-05T13:13:24;102063.56;;;16.52;30.21
48527;BME280;34317;51.660;5.824;2023-04-05T13:15:51;102052.88;;;16.52;29.85
48527;BME280;34317;51.660;5.824;2023-04-05T13:18:19;102051.31;;;16.48;29.80
48527;BME280;34317;51.660;5.824;2023-04-05T13:20:46;102045.97;;;16.48;29.89
48527;BME280;34317;51.660;5.824;2023-04-05T13:23:14;102049.41;;;16.50;29.86
48527;BME280;34317;51.660;5.824;2023-04-05T13:25:42;102047.53;;;16.52;30.25
48527;BME280;34317;51.660;5.824;2023-04-05T13:28:11;102050.84;;;16.58;30.19
48527;BME280;34317;51.660;5.824;2023-04-05T13:30:38;102046.88;;;16.65;30.07
48527;BME280;34317;51.660;5.824;2023-04-05T13:33:06;102050.19;;;16.70;29.75
48527;BME280;34317;51.660;5.824;2023-04-05T13:35:33;102034.16;;;16.70;29.35
48527;BME280;34317;51.660;5.824;2023-04-05T13:38:00;102034.16;;;16.70;29.11
48527;BME280;34317;51.660;5.824;2023-04-05T13:40:31;102031.53;;;16.68;28.87
48527;BME280;34317;51.660;5.824;2023-04-05T13:42:58;102034.28;;;16.67;28.68
48527;BME280;34317;51.660;5.824;2023-04-05T13:45:26;102023.59;;;16.67;28.77